Terminal Aerodrome Forecast
Issued by NWS

Home | Current Version | Previous Version | Text Only | Print | Product List | Glossary On
Versions: 1 2 3 4 5 6 7 8 9 10 11 12 13 14 15 16 17 18 19
823
FTAK31 PAJN 281722
TAFAYA
TAF
PAYA 281722Z 2818/2918 10005KT 6SM -RA OVC015
      TEMPO 2818/2822 5SM -RA BR BKN007 OVC015
     FM290600 08002KT P6SM VCSH SCT015 OVC030
     FM291200 06005KT P6SM BKN040
      AMD LTD TO CLD VIS AND WIND 2901/2909=

USA.gov is the U.S. government's official web portal to all federal, state and local government web resources and services.